Time;durP1;ratioP1;P1;durP2;ratioP2;P2;SDS_P1;SDS_P2;PMS_P1;PMS_P2;Temp;Humidity;BMP_temperature;BMP_pressure;BME280_temperature;BME280_humidity;BME280_pressure;Samples;Min_cycle;Max_cycle;Signal;HPM_P1;HPM_P2
2022/09/17 00:02:16;;;;;;;11.47;2.70;;;;;;;9.91;97.34;101316.59;5032278;28;20028;-56
2022/09/17 00:04:41;;;;;;;9.60;2.58;;;;;;;9.92;97.06;101315.66;5032425;28;20341;-57
2022/09/17 00:07:07;;;;;;;13.95;2.83;;;;;;;9.92;97.86;101319.13;5032496;28;20025;-55
2022/09/17 00:09:32;;;;;;;10.98;2.92;;;;;;;9.94;98.60;101321.69;5032226;28;20030;-56
2022/09/17 00:11:57;;;;;;;10.05;2.50;;;;;;;9.90;98.57;101322.88;5032476;28;20021;-57
2022/09/17 00:14:23;;;;;;;9.45;2.53;;;;;;;9.93;98.11;101327.97;5032286;28;20038;-56
2022/09/17 00:16:48;;;;;;;12.60;3.03;;;;;;;9.94;98.04;101333.19;5032259;28;20021;-56
2022/09/17 00:19:20;;;;;;;9.73;2.47;;;;;;;9.96;98.31;101335.72;5032671;28;20272;-57
2022/09/17 00:21:45;;;;;;;11.52;3.20;;;;;;;9.93;98.08;101333.28;5032088;28;20033;-56
2022/09/17 00:24:12;;;;;;;11.55;2.30;;;;;;;9.94;97.99;101337.63;5032422;28;20033;-57
2022/09/17 00:26:38;;;;;;;12.85;2.65;;;;;;;9.92;98.50;101327.09;5031936;28;20021;-57
2022/09/17 00:29:04;;;;;;;11.73;2.60;;;;;;;9.92;98.03;101316.47;5032471;28;20112;-57
2022/09/17 00:31:32;;;;;;;9.13;2.42;;;;;;;9.94;97.63;101322.56;5031525;28;20460;-56
2022/09/17 00:33:59;;;;;;;16.42;3.15;;;;;;;9.95;98.17;101326.06;5032230;28;20064;-56
2022/09/17 00:36:24;;;;;;;14.07;2.75;;;;;;;9.96;98.29;101328.63;5032292;28;20101;-57
2022/09/17 00:38:51;;;;;;;12.75;2.67;;;;;;;9.98;98.19;101331.16;5032030;28;20116;-55
2022/09/17 00:41:18;;;;;;;13.27;2.35;;;;;;;9.98;98.54;101342.63;5032193;28;20033;-57
2022/09/17 00:43:47;;;;;;;11.02;2.53;;;;;;;9.99;98.18;101335.50;5032416;28;20095;-57
2022/09/17 00:46:33;;;;;;;9.30;2.60;;;;;;;10.04;98.17;101343.16;5031927;28;20112;-57
2022/09/17 00:49:03;;;;;;;13.75;2.95;;;;;;;10.00;98.32;101340.72;5032117;28;20036;-56
2022/09/17 00:53:56;;;;;;;10.25;2.58;;;;;;;10.02;98.91;101330.00;5031814;28;20049;-76
2022/09/17 00:56:26;;;;;;;11.90;2.65;;;;;;;10.02;98.40;101340.63;5033358;28;20048;-76
2022/09/17 00:58:53;;;;;;;11.75;2.03;;;;;;;10.04;98.54;101345.81;5020370;28;20026;-76
2022/09/17 01:01:18;;;;;;;10.70;2.30;;;;;;;10.01;97.48;101344.25;5033289;28;20083;-77
2022/09/17 01:03:44;;;;;;;11.95;2.88;;;;;;;10.02;97.72;101345.91;5033765;28;20018;-77
2022/09/17 01:06:24;;;;;;;9.77;2.53;;;;;;;10.04;97.78;101345.81;5033330;28;20049;-77
2022/09/17 01:09:04;;;;;;;8.60;2.75;;;;;;;10.02;98.25;101351.22;5022784;28;20431;-76
2022/09/17 01:11:48;;;;;;;12.25;2.85;;;;;;;10.04;98.38;101345.81;5033674;28;20040;-76
2022/09/17 01:14:29;;;;;;;11.15;2.45;;;;;;;10.02;98.26;101337.97;5035301;28;20038;-76
2022/09/17 01:17:06;;;;;;;12.45;2.65;;;;;;;10.03;98.20;101347.63;5033532;28;20030;-76
2022/09/17 01:19:56;;;;;;;12.10;2.58;;;;;;;10.03;97.97;101347.63;5033684;28;20021;-76
2022/09/17 01:22:52;;;;;;;12.75;2.55;;;;;;;10.03;98.11;101341.50;5023837;28;20040;-76
2022/09/17 01:25:42;;;;;;;12.98;2.67;;;;;;;10.04;98.13;101351.13;5013925;28;20029;-76
2022/09/17 01:28:28;;;;;;;12.73;2.53;;;;;;;10.01;98.07;101352.19;5034889;28;20508;-76
2022/09/17 01:31:23;;;;;;;12.00;2.75;;;;;;;10.05;98.44;101359.00;5033543;28;20493;-76
2022/09/17 01:34:29;;;;;;;11.32;2.47;;;;;;;10.10;98.14;101372.81;4995377;28;20065;-76
2022/09/17 01:37:10;;;;;;;12.00;3.22;;;;;;;10.09;97.98;101362.28;5004698;28;20034;-76
2022/09/17 01:40:04;;;;;;;10.70;2.20;;;;;;;10.11;98.31;101368.38;5033115;28;20056;-76
2022/09/17 01:42:54;;;;;;;13.88;2.83;;;;;;;10.13;98.08;101361.16;5022352;28;20538;-76
2022/09/17 01:45:45;;;;;;;11.65;2.95;;;;;;;10.13;98.25;101361.16;5039900;28;20028;-76
2022/09/17 01:48:17;;;;;;;9.82;2.53;;;;;;;10.12;98.71;101370.06;5036759;28;20116;-76
2022/09/17 01:50:55;;;;;;;15.32;3.15;;;;;;;10.14;98.75;101368.13;5035896;28;20105;-76
2022/09/17 01:53:27;;;;;;;15.20;2.72;;;;;;;10.11;98.19;101369.22;5018670;28;20050;-76
2022/09/17 01:55:55;;;;;;;10.68;2.60;;;;;;;10.10;98.69;101372.81;5016979;28;20116;-76
2022/09/17 01:58:34;;;;;;;8.63;2.10;;;;;;;10.13;97.89;101375.25;5021587;28;20108;-76
2022/09/17 02:01:03;;;;;;;13.10;3.70;;;;;;;10.09;97.59;101368.47;5017617;28;20030;-76
2022/09/17 02:03:40;;;;;;;8.90;2.67;;;;;;;10.12;97.87;101370.06;5003913;28;20034;-75
2022/09/17 02:06:11;;;;;;;8.68;2.00;;;;;;;10.10;98.13;101362.19;5016601;28;20037;-76
2022/09/17 02:09:01;;;;;;;11.95;2.30;;;;;;;10.15;97.54;101375.16;5016459;28;20021;-76
2022/09/17 02:11:27;;;;;;;10.73;2.35;;;;;;;10.10;97.35;101361.34;5021950;28;20391;-76
2022/09/17 02:14:09;;;;;;;10.65;2.20;;;;;;;10.10;97.42;101362.19;5036018;28;20033;-76
2022/09/17 02:16:38;;;;;;;12.82;2.55;;;;;;;10.07;97.56;101365.03;5005328;28;20388;-77
2022/09/17 02:19:12;;;;;;;14.23;2.67;;;;;;;10.02;97.85;101353.03;5016802;28;20034;-76
2022/09/17 02:21:56;;;;;;;14.63;2.97;;;;;;;10.09;98.46;101370.25;5026485;28;20357;-76
2022/09/17 02:24:23;;;;;;;9.25;2.40;;;;;;;10.05;97.91;101366.13;5017204;28;20030;-76
2022/09/17 02:27:17;;;;;;;7.60;2.03;;;;;;;10.08;98.26;101364.09;5018248;28;20045;-76
2022/09/17 02:29:43;;;;;;;11.63;2.85;;;;;;;10.06;97.99;101373.97;5016071;28;20445;-76
2022/09/17 02:32:11;;;;;;;12.52;2.55;;;;;;;10.03;97.70;101376.81;5015486;28;20449;-76
2022/09/17 02:34:36;;;;;;;7.88;2.00;;;;;;;10.01;97.97;101373.44;5016617;28;20523;-76
2022/09/17 02:37:03;;;;;;;13.35;3.03;;;;;;;10.03;98.54;101368.03;5025043;28;20026;-76
2022/09/17 02:39:29;;;;;;;12.57;2.58;;;;;;;10.00;97.78;101383.16;5020067;28;20033;-76
2022/09/17 02:42:07;;;;;;;10.93;2.42;;;;;;;10.00;97.87;101383.16;5015978;28;20033;-76
2022/09/17 02:44:57;;;;;;;12.90;2.50;;;;;;;10.00;97.33;101379.69;5015935;28;20036;-76
2022/09/17 02:47:32;;;;;;;10.57;2.40;;;;;;;10.01;98.10;101392.00;5002523;28;20031;-76
2022/09/17 02:50:23;;;;;;;11.93;2.50;;;;;;;10.03;98.10;101394.56;5015478;28;20512;-76
2022/09/17 02:53:27;;;;;;;9.95;2.30;;;;;;;10.02;98.19;101396.34;5014997;28;20046;-76
2022/09/17 02:56:01;;;;;;;12.38;2.88;;;;;;;9.97;97.42;101396.63;5020865;28;20033;-76
2022/09/17 02:58:40;;;;;;;13.57;2.53;;;;;;;9.95;97.53;101395.06;5019313;28;20037;-76
2022/09/17 03:01:19;;;;;;;8.65;2.10;;;;;;;9.92;96.88;101393.44;5010184;28;20033;-76
2022/09/17 03:03:50;;;;;;;13.30;2.33;;;;;;;9.88;96.97;101391.09;5016318;28;20056;-76
2022/09/17 03:06:17;;;;;;;9.10;2.20;;;;;;;9.82;97.77;101387.03;5034911;28;20373;-76
2022/09/17 03:08:42;;;;;;;9.95;2.13;;;;;;;9.82;97.15;101393.22;5027064;28;20420;-76
2022/09/17 03:11:11;;;;;;;12.95;2.33;;;;;;;9.80;97.39;101383.63;5015080;28;20042;-76
2022/09/17 03:13:37;;;;;;;12.38;2.70;;;;;;;9.77;97.40;101386.47;5013922;28;20022;-76
2022/09/17 03:16:03;;;;;;;10.25;2.20;;;;;;;9.75;97.71;101391.03;5018072;28;20041;-76
2022/09/17 03:18:34;;;;;;;10.52;2.63;;;;;;;9.73;97.88;101385.00;5032161;28;20029;-76
2022/09/17 03:21:00;;;;;;;12.23;2.45;;;;;;;9.70;97.94;101391.31;5022389;28;20029;-76
2022/09/17 03:23:26;;;;;;;12.57;2.67;;;;;;;9.67;97.99;101386.22;5015645;28;20026;-76
2022/09/17 03:25:52;;;;;;;11.57;2.10;;;;;;;9.71;97.89;101381.56;5015557;28;20484;-76
2022/09/17 03:28:17;;;;;;;15.48;2.80;;;;;;;9.68;98.27;101382.63;5015617;28;20064;-76
2022/09/17 03:30:44;;;;;;;11.70;2.35;;;;;;;9.68;98.54;101381.78;5019922;28;20021;-76
2022/09/17 03:33:09;;;;;;;8.48;2.08;;;;;;;9.67;98.48;101378.25;5034493;28;20033;-76
2022/09/17 03:35:34;;;;;;;10.38;2.28;;;;;;;9.67;98.14;101380.91;5016472;28;20025;-76
2022/09/17 03:38:00;;;;;;;11.75;2.05;;;;;;;9.62;97.84;101377.69;5015219;28;20030;-76
2022/09/17 03:40:25;;;;;;;9.25;2.50;;;;;;;9.63;97.77;101384.72;5019390;28;20491;-76
2022/09/17 03:42:51;;;;;;;9.43;2.20;;;;;;;9.63;97.78;101379.41;5034494;28;20360;-75
2022/09/17 03:45:16;;;;;;;10.20;2.15;;;;;;;9.60;97.21;101377.81;5029988;28;20026;-76
2022/09/17 03:47:41;;;;;;;10.32;2.10;;;;;;;9.59;97.48;101376.13;5015532;28;20546;-76
2022/09/17 03:50:07;;;;;;;9.35;2.42;;;;;;;9.58;97.09;101384.16;5015436;28;20526;-76
2022/09/17 03:52:32;;;;;;;13.32;2.42;;;;;;;9.53;97.14;101379.16;5025273;28;20072;-77
2022/09/17 03:54:57;;;;;;;9.82;2.08;;;;;;;9.54;97.03;101387.94;5025300;28;20045;-76
2022/09/17 03:57:23;;;;;;;13.03;2.23;;;;;;;9.52;96.75;101385.38;5015422;28;20026;-75
2022/09/17 03:59:48;;;;;;;11.88;2.10;;;;;;;9.50;96.98;101389.09;5014958;28;20280;-76
2022/09/17 04:02:13;;;;;;;9.38;2.78;;;;;;;9.48;97.13;101398.97;5016017;28;20468;-75
2022/09/17 04:04:39;;;;;;;12.90;2.70;;;;;;;9.45;96.76;101394.69;5024875;28;20044;-76
2022/09/17 04:07:04;;;;;;;11.85;2.47;;;;;;;9.42;96.40;101398.38;5034725;28;20472;-75
2022/09/17 04:09:30;;;;;;;12.57;2.47;;;;;;;9.38;96.76;101396.03;5020428;28;20045;-76
2022/09/17 04:11:55;;;;;;;11.98;2.47;;;;;;;9.35;96.90;101394.41;5023785;28;20101;-75
2022/09/17 04:14:20;;;;;;;13.23;2.47;;;;;;;9.34;97.47;101400.69;5045990;28;20182;-75
2022/09/17 04:16:46;;;;;;;9.88;2.05;;;;;;;9.33;97.96;101398.97;5025109;28;20044;-76
2022/09/17 04:19:11;;;;;;;9.07;1.90;;;;;;;9.31;97.64;101400.00;5018224;28;20032;-76
2022/09/17 04:21:37;;;;;;;9.80;2.40;;;;;;;9.26;97.18;101397.66;5032479;28;20021;-76
2022/09/17 04:24:02;;;;;;;8.18;2.00;;;;;;;9.23;97.02;101400.50;5029753;28;20033;-76
2022/09/17 04:26:27;;;;;;;9.73;2.00;;;;;;;9.26;97.82;101409.09;5023292;28;20087;-76
2022/09/17 04:28:53;;;;;;;6.28;2.10;;;;;;;9.23;97.38;101397.84;5027323;28;20018;-77
2022/09/17 04:31:18;;;;;;;9.30;2.37;;;;;;;9.21;96.92;101407.69;5023383;28;20084;-76
2022/09/17 04:33:43;;;;;;;8.47;2.10;;;;;;;9.19;97.43;101401.63;5031263;28;20280;-76
2022/09/17 04:36:08;;;;;;;7.00;1.98;;;;;;;9.18;97.57;101403.41;5023679;28;20280;-76
2022/09/17 04:38:34;;;;;;;12.00;2.23;;;;;;;9.16;97.82;101407.09;5017802;28;20029;-76
2022/09/17 04:40:59;;;;;;;11.60;1.88;;;;;;;9.16;98.01;101413.28;5014511;28;20305;-76
2022/09/17 04:43:24;;;;;;;11.63;2.25;;;;;;;9.16;98.55;101423.00;5014270;28;20468;-76
2022/09/17 04:45:50;;;;;;;9.65;2.30;;;;;;;9.17;98.23;101427.38;5023033;28;20038;-76
2022/09/17 04:48:15;;;;;;;10.35;2.05;;;;;;;9.18;98.85;101437.03;5033816;28;20021;-76
2022/09/17 04:50:41;;;;;;;11.45;2.28;;;;;;;9.17;98.90;101422.91;5013293;28;20026;-76
2022/09/17 04:53:07;;;;;;;13.90;2.50;;;;;;;9.18;99.70;101416.69;5019379;28;20050;-76
2022/09/17 04:55:32;;;;;;;12.75;2.38;;;;;;;9.18;99.54;101414.03;5023168;28;20030;-76
2022/09/17 04:57:57;;;;;;;14.35;2.35;;;;;;;9.19;99.70;101406.91;5020628;28;21222;-75
2022/09/17 05:00:23;;;;;;;5.95;2.35;;;;;;;9.21;99.91;101405.03;5025448;28;20034;-76
2022/09/17 05:02:51;;;;;;;12.98;2.40;;;;;;;9.20;100.00;101408.63;5013866;28;20105;-76
2022/09/17 05:05:18;;;;;;;12.98;2.35;;;;;;;9.22;99.90;101410.22;5022241;28;20037;-75
2022/09/17 05:07:44;;;;;;;12.93;2.63;;;;;;;9.21;99.67;101410.34;5030571;28;20032;-76
2022/09/17 05:10:11;;;;;;;10.10;1.95;;;;;;;9.21;99.20;101413.00;5019690;28;20037;-77
2022/09/17 05:12:36;;;;;;;10.77;2.10;;;;;;;9.21;99.06;101418.28;5014110;28;20097;-77
2022/09/17 05:15:02;;;;;;;11.85;2.30;;;;;;;9.19;99.39;101415.75;5013883;28;20052;-78
2022/09/17 05:17:27;;;;;;;11.07;2.13;;;;;;;9.21;99.33;101428.91;5016137;28;20038;-77
2022/09/17 05:19:52;;;;;;;11.93;2.30;;;;;;;9.21;99.09;101428.91;5027362;28;20037;-77
2022/09/17 05:22:19;;;;;;;10.05;2.72;;;;;;;9.19;98.69;101428.13;5033576;28;20029;-77
2022/09/17 05:24:45;;;;;;;12.05;2.50;;;;;;;9.15;98.16;101421.31;5026282;28;20349;-77
2022/09/17 05:27:11;;;;;;;11.40;2.15;;;;;;;9.14;98.84;101430.19;5023967;28;20041;-77
2022/09/17 05:29:37;;;;;;;9.30;2.38;;;;;;;9.12;98.77;101435.59;5031601;28;20018;-77
2022/09/17 05:32:03;;;;;;;10.93;2.33;;;;;;;9.11;98.59;101435.69;5032786;28;20021;-77
2022/09/17 05:34:29;;;;;;;13.30;2.50;;;;;;;9.10;98.86;101442.78;5028898;28;20411;-77
2022/09/17 05:36:54;;;;;;;8.25;2.17;;;;;;;9.10;99.02;101444.59;5020358;28;20034;-77
2022/09/17 05:39:21;;;;;;;13.07;2.20;;;;;;;9.10;98.64;101440.13;5021321;28;20049;-77
2022/09/17 05:41:47;;;;;;;10.85;2.38;;;;;;;9.10;98.83;101431.34;5026009;28;20113;-78
2022/09/17 05:44:12;;;;;;;11.60;2.28;;;;;;;9.11;98.80;101440.97;5029297;28;20030;-79
2022/09/17 05:46:38;;;;;;;11.63;2.08;;;;;;;9.12;99.29;101440.88;5017632;28;20033;-78
2022/09/17 05:49:03;;;;;;;11.65;2.40;;;;;;;9.12;98.88;101448.00;5018474;28;20576;-78
2022/09/17 05:51:29;;;;;;;9.02;2.10;;;;;;;9.10;98.47;101447.25;5018415;28;20030;-79
2022/09/17 05:53:55;;;;;;;13.20;2.30;;;;;;;9.08;98.79;101444.69;5024880;28;20407;-78
2022/09/17 05:56:22;;;;;;;9.82;2.30;;;;;;;9.12;99.42;101453.31;5020559;28;20033;-78
2022/09/17 05:58:48;;;;;;;11.43;2.58;;;;;;;9.15;100.00;101456.63;5021266;28;20469;-78
2022/09/17 06:01:15;;;;;;;9.55;2.33;;;;;;;9.21;100.00;101469.50;5018131;28;20033;-78
2022/09/17 06:03:41;;;;;;;12.43;2.47;;;;;;;9.25;100.00;101472.81;5017958;28;20033;-78
2022/09/17 06:06:06;;;;;;;6.13;2.03;;;;;;;9.28;100.00;101477.09;5009762;28;20038;-78
2022/09/17 06:08:35;;;;;;;10.73;2.22;;;;;;;9.26;100.00;101485.13;5011395;28;20018;-78
2022/09/17 06:11:05;;;;;;;9.77;2.00;;;;;;;9.27;100.00;101484.16;5017876;28;20030;-78
2022/09/17 06:13:31;;;;;;;10.75;2.67;;;;;;;9.28;100.00;101479.72;5027605;28;20456;-78
2022/09/17 06:15:56;;;;;;;10.95;2.35;;;;;;;9.28;99.92;101488.53;5022498;28;20494;-78
2022/09/17 06:18:22;;;;;;;17.00;2.55;;;;;;;9.29;100.00;101484.91;5012816;28;20050;-77
2022/09/17 06:21:01;;;;;;;9.93;2.00;;;;;;;9.29;100.00;101478.78;5012029;28;20428;-77
2022/09/17 06:23:30;;;;;;;13.75;2.58;;;;;;;9.28;99.59;101477.94;5020482;28;20032;-77
2022/09/17 06:25:57;;;;;;;9.82;2.08;;;;;;;9.30;99.56;101480.50;5018012;28;20386;-77
2022/09/17 06:28:23;;;;;;;7.65;2.28;;;;;;;9.28;99.41;101474.44;5016085;28;20539;-77
2022/09/17 06:30:51;;;;;;;11.63;2.13;;;;;;;9.28;99.58;101479.72;5012077;28;20046;-77
2022/09/17 06:33:17;;;;;;;10.88;2.45;;;;;;;9.28;99.30;101477.09;5012722;28;20062;-77
2022/09/17 06:35:42;;;;;;;14.45;2.42;;;;;;;9.25;98.73;101481.59;5015402;28;20536;-77
2022/09/17 06:38:07;;;;;;;9.27;2.42;;;;;;;9.28;99.01;101477.94;5015005;28;20037;-78
2022/09/17 06:40:33;;;;;;;9.90;2.42;;;;;;;9.28;99.02;101482.38;5014971;28;20057;-77
2022/09/17 06:42:59;;;;;;;6.40;2.03;;;;;;;9.30;99.49;101486.63;5015097;28;20030;-77
2022/09/17 06:45:25;;;;;;;8.85;1.90;;;;;;;9.27;99.27;101478.84;5014553;28;20049;-77
2022/09/17 06:47:50;;;;;;;9.52;2.08;;;;;;;9.32;99.26;101473.28;5017392;28;20029;-76
2022/09/17 06:50:17;;;;;;;10.70;2.38;;;;;;;9.35;99.57;101479.25;5015588;28;20038;-77
2022/09/17 06:52:49;;;;;;;10.02;1.98;;;;;;;9.39;100.00;101474.59;5006781;28;20085;-77
2022/09/17 06:55:15;;;;;;;8.98;1.75;;;;;;;9.39;98.82;101467.53;5012895;28;20046;-76
2022/09/17 06:57:40;;;;;;;9.57;1.70;;;;;;;9.42;98.98;101471.78;5016132;28;20105;-76
2022/09/17 07:00:07;;;;;;;7.18;1.98;;;;;;;9.44;98.94;101468.09;5015351;28;20048;-76
2022/09/17 07:02:32;;;;;;;8.95;2.00;;;;;;;9.48;99.36;101462.59;5015456;28;20026;-76
2022/09/17 07:04:57;;;;;;;11.65;2.20;;;;;;;9.54;99.13;101472.81;5014939;28;20053;-76
2022/09/17 07:07:23;;;;;;;12.33;2.33;;;;;;;9.61;99.74;101475.00;5009657;28;20038;-77
2022/09/17 07:09:48;;;;;;;8.65;2.10;;;;;;;9.74;100.00;101475.09;5016164;28;20372;-77
2022/09/17 07:12:13;;;;;;;10.10;2.00;;;;;;;9.81;100.00;101473.75;5015994;28;20029;-77
2022/09/17 07:14:38;;;;;;;13.73;2.53;;;;;;;9.91;100.00;101481.97;5014886;28;20041;-77
2022/09/17 07:17:04;;;;;;;12.63;2.35;;;;;;;10.04;99.96;101483.81;5011543;28;20037;-77
2022/09/17 07:19:29;;;;;;;9.20;2.10;;;;;;;10.12;99.89;101481.53;5013849;28;20053;-77
2022/09/17 07:21:54;;;;;;;9.68;2.15;;;;;;;10.23;99.69;101472.88;5014154;28;20029;-76
2022/09/17 07:24:21;;;;;;;10.18;2.38;;;;;;;10.42;99.96;101486.69;5012995;28;20453;-77
2022/09/17 07:26:46;;;;;;;17.90;2.88;;;;;;;10.53;99.20;101492.13;5012874;28;20496;-77
2022/09/17 07:29:11;;;;;;;10.35;2.42;;;;;;;10.72;99.79;101486.47;5012569;28;20045;-78
2022/09/17 07:31:37;;;;;;;10.15;2.50;;;;;;;10.89;97.67;101480.00;5011427;28;20046;-77
2022/09/17 07:34:02;;;;;;;12.40;2.35;;;;;;;11.06;97.19;101478.03;5014615;28;20032;-77
2022/09/17 07:36:27;;;;;;;9.73;2.20;;;;;;;11.24;96.36;101473.22;5010412;28;20048;-77
2022/09/17 07:38:53;;;;;;;8.73;2.42;;;;;;;11.53;96.25;101479.16;5013559;28;20149;-77
2022/09/17 07:41:18;;;;;;;15.48;2.67;;;;;;;11.69;94.53;101478.94;5013476;28;20117;-77
2022/09/17 07:43:44;;;;;;;10.98;2.10;;;;;;;11.94;95.93;101482.53;5014305;28;20373;-77
2022/09/17 07:46:14;;;;;;;10.45;1.65;;;;;;;12.10;92.11;101471.63;5012476;28;20034;-77
2022/09/17 07:48:40;;;;;;;3.30;1.25;;;;;;;12.26;90.21;101480.19;5018390;28;20040;-77
2022/09/17 07:51:05;;;;;;;6.68;1.83;;;;;;;12.43;91.12;101483.41;5023410;28;20029;-78
2022/09/17 07:53:31;;;;;;;6.15;1.75;;;;;;;12.45;86.01;101478.81;5017826;28;20049;-78
2022/09/17 07:55:58;;;;;;;9.90;1.70;;;;;;;12.61;87.43;101481.16;5013781;28;20046;-78
2022/09/17 07:58:29;;;;;;;8.10;1.63;;;;;;;12.67;86.27;101481.56;5008474;28;20037;-78
2022/09/17 08:01:09;;;;;;;7.43;2.13;;;;;;;12.80;87.79;101483.31;5015766;28;20033;-78
2022/09/17 08:03:35;;;;;;;10.80;2.97;;;;;;;13.01;87.16;101473.69;5013855;28;20029;-78
2022/09/17 08:06:13;;;;;;;13.27;2.65;;;;;;;13.19;86.52;101482.09;5017543;28;20042;-77
2022/09/17 08:08:39;;;;;;;7.22;2.63;;;;;;;13.40;85.27;101482.25;5017142;28;20022;-74
2022/09/17 08:11:20;;;;;;;7.25;1.80;;;;;;;13.64;84.98;101478.63;5024094;28;20025;-76
2022/09/17 08:13:48;;;;;;;8.65;1.90;;;;;;;13.73;81.93;101479.72;5003848;28;20068;-76
2022/09/17 08:16:14;;;;;;;7.15;1.50;;;;;;;13.88;81.56;101481.97;5021076;28;20032;-75
2022/09/17 08:18:40;;;;;;;7.13;1.83;;;;;;;13.91;79.93;101480.91;5019572;28;20033;-76
2022/09/17 08:21:06;;;;;;;6.35;1.30;;;;;;;14.01;80.66;101481.84;5015252;28;20038;-77
2022/09/17 08:23:36;;;;;;;5.55;1.55;;;;;;;14.15;79.86;101488.72;5016508;28;20025;-77
2022/09/17 08:26:03;;;;;;;6.32;1.60;;;;;;;14.25;79.59;101479.00;5011829;28;20109;-76
2022/09/17 08:28:30;;;;;;;5.03;1.30;;;;;;;14.44;77.09;101472.16;5024537;28;20026;-76
2022/09/17 08:31:08;;;;;;;5.47;1.52;;;;;;;14.53;77.85;101473.19;5012882;28;20022;-77
2022/09/17 08:33:36;;;;;;;5.53;1.70;;;;;;;14.66;76.43;101481.06;5012111;28;20034;-77
2022/09/17 08:36:02;;;;;;;7.03;1.70;;;;;;;14.84;75.10;101473.31;5012982;28;20092;-76
2022/09/17 08:38:29;;;;;;;4.57;1.35;;;;;;;14.97;74.71;101477.50;5012898;28;20412;-77
2022/09/17 08:41:10;;;;;;;8.05;1.67;;;;;;;15.11;75.01;101484.34;5007334;28;20034;-77
2022/09/17 08:43:45;;;;;;;6.13;1.50;;;;;;;15.23;73.62;101489.63;5017414;28;20659;-77
2022/09/17 08:46:11;;;;;;;6.70;1.40;;;;;;;15.34;70.50;101492.22;5011723;28;20473;-77
2022/09/17 08:48:42;;;;;;;5.25;1.58;;;;;;;15.56;72.40;101483.16;5006061;28;20033;-76
2022/09/17 08:51:35;;;;;;;5.25;1.75;;;;;;;15.72;74.05;101491.53;5019209;28;20088;-76
2022/09/17 08:54:28;;;;;;;4.75;1.33;;;;;;;15.88;74.12;101492.91;5010492;28;20076;-76
2022/09/17 08:57:24;;;;;;;7.22;1.35;;;;;;;16.00;70.71;101488.28;5019846;28;20798;-77
2022/09/17 09:00:12;;;;;;;5.28;1.33;;;;;;;16.18;70.84;101496.50;5016855;28;20029;-76
2022/09/17 09:02:48;;;;;;;6.70;1.40;;;;;;;16.31;67.46;101490.88;5016905;28;20034;-77
2022/09/17 09:05:43;;;;;;;5.30;1.52;;;;;;;16.41;71.13;101486.38;5020862;28;20072;-76
2022/09/17 09:08:39;;;;;;;9.90;1.27;;;;;;;16.52;67.58;101499.66;5020994;28;20038;-76
2022/09/17 09:11:12;;;;;;;4.03;1.10;;;;;;;16.52;69.02;101498.78;5016287;28;20029;-76
2022/09/17 09:13:41;;;;;;;5.63;1.35;;;;;;;16.40;69.96;101496.25;5019591;28;20406;-77
2022/09/17 09:16:25;;;;;;;6.03;1.30;;;;;;;16.33;70.85;101503.16;5028419;28;20384;-77
2022/09/17 09:18:58;;;;;;;8.43;1.40;;;;;;;16.09;70.18;101496.34;5039765;28;20040;-76
2022/09/17 09:21:46;;;;;;;4.75;1.33;;;;;;;16.07;71.30;101500.13;5020204;28;20025;-77
2022/09/17 09:24:23;;;;;;;9.25;2.22;;;;;;;16.03;73.17;101496.88;5020657;28;20056;-76
2022/09/17 09:27:21;;;;;;;7.75;1.48;;;;;;;16.22;71.84;101498.78;5020519;28;20461;-76
2022/09/17 09:30:00;;;;;;;7.97;1.83;;;;;;;16.55;69.98;101495.81;5031366;28;20030;-76
2022/09/17 09:32:47;;;;;;;5.75;1.65;;;;;;;16.62;70.86;101495.13;5017738;28;20034;-77
2022/09/17 09:35:21;;;;;;;5.00;1.55;;;;;;;16.93;69.46;101486.94;5019669;28;20026;-76
2022/09/17 09:38:13;;;;;;;6.40;1.52;;;;;;;17.14;69.44;101493.97;5027068;28;20026;-76
2022/09/17 09:41:05;;;;;;;8.98;1.58;;;;;;;17.22;66.97;101499.47;5032373;28;20109;-77
2022/09/17 09:43:40;;;;;;;7.80;1.40;;;;;;;17.08;64.19;101498.06;5040580;28;20469;-76
2022/09/17 09:46:20;;;;;;;5.72;1.05;;;;;;;16.98;64.32;101500.75;5010310;28;20388;-77
2022/09/17 09:49:15;;;;;;;6.38;0.98;;;;;;;16.89;65.52;101498.97;5015068;28;20531;-77
2022/09/17 09:52:05;;;;;;;5.72;1.40;;;;;;;16.72;64.79;101497.81;5009773;28;20025;-77
2022/09/17 09:54:38;;;;;;;8.15;1.52;;;;;;;16.57;63.08;101492.03;5012105;28;20054;-76
2022/09/17 09:57:12;;;;;;;5.97;1.00;;;;;;;16.58;63.84;101500.91;5010592;28;20477;-77
2022/09/17 09:59:40;;;;;;;5.55;1.10;;;;;;;16.46;62.57;101510.94;5012991;28;20026;-77
2022/09/17 10:02:06;;;;;;;4.20;1.20;;;;;;;16.32;64.26;101503.28;5015517;28;20033;-77
2022/09/17 10:04:32;;;;;;;6.00;1.05;;;;;;;16.34;62.01;101504.00;5015105;28;20125;-77
2022/09/17 10:07:09;;;;;;;4.75;0.90;;;;;;;16.60;65.16;101505.16;5016416;28;20121;-76
2022/09/17 10:09:38;;;;;;;6.20;1.05;;;;;;;16.59;62.41;101507.97;5019328;28;20021;-76
2022/09/17 10:12:07;;;;;;;6.13;1.33;;;;;;;16.69;63.01;101506.13;5026362;28;20033;-76
2022/09/17 10:14:40;;;;;;;4.47;0.90;;;;;;;16.96;63.29;101502.75;5016495;28;20431;-76
2022/09/17 10:17:22;;;;;;;9.00;1.67;;;;;;;17.13;61.80;101497.66;5016283;28;20045;-75
2022/09/17 10:20:12;;;;;;;6.43;0.88;;;;;;;17.10;61.57;101504.16;5011906;28;20101;-75
2022/09/17 10:22:39;;;;;;;5.57;0.95;;;;;;;17.18;60.16;101495.38;5017092;28;20519;-75
2022/09/17 10:25:17;;;;;;;6.05;1.25;;;;;;;17.45;59.97;101502.63;5017772;28;20022;-75
2022/09/17 10:27:44;;;;;;;2.90;1.10;;;;;;;17.50;60.54;101488.75;5012234;28;20040;-76
2022/09/17 10:30:10;;;;;;;7.65;1.33;;;;;;;17.66;59.04;101490.84;5016374;28;20351;-76
2022/09/17 10:32:35;;;;;;;2.47;0.83;;;;;;;17.88;60.21;101486.94;5019373;28;20058;-75
2022/09/17 10:35:24;;;;;;;6.68;1.00;;;;;;;17.96;60.54;101491.56;5017393;28;20034;-76
2022/09/17 10:37:52;;;;;;;4.88;1.48;;;;;;;17.72;59.82;101492.94;5031091;28;20112;-77
2022/09/17 10:40:17;;;;;;;7.88;1.65;;;;;;;17.60;63.42;101494.94;5026286;28;20064;-76
2022/09/17 10:42:47;;;;;;;3.33;0.90;;;;;;;17.24;62.74;101502.00;5040124;28;20038;-76
2022/09/17 10:45:28;;;;;;;5.03;0.95;;;;;;;16.95;63.44;101494.84;5045201;28;20029;-76
2022/09/17 10:47:55;;;;;;;4.80;0.85;;;;;;;16.77;65.70;101500.91;5018850;28;20081;-76
2022/09/17 10:50:29;;;;;;;6.57;1.40;;;;;;;16.75;67.01;101497.53;5021908;28;20037;-76
2022/09/17 10:53:01;;;;;;;3.70;1.00;;;;;;;16.69;66.31;101505.31;5038551;28;20491;-76
2022/09/17 10:55:34;;;;;;;6.88;0.98;;;;;;;16.60;64.37;101493.56;5025275;28;20026;-77
2022/09/17 10:58:06;;;;;;;5.22;1.10;;;;;;;16.65;65.56;101497.53;5023668;28;20057;-76
2022/09/17 11:00:44;;;;;;;3.72;1.00;;;;;;;16.62;65.77;101491.56;5020807;28;20040;-78
2022/09/17 11:03:28;;;;;;;4.28;1.08;;;;;;;16.68;64.79;101498.22;5017798;28;20125;-76
2022/09/17 11:06:08;;;;;;;2.33;0.77;;;;;;;16.72;64.64;101494.25;5019629;28;20038;-76
2022/09/17 11:08:45;;;;;;;5.38;1.42;;;;;;;16.79;66.37;101496.25;5039152;28;20049;-76
2022/09/17 11:11:37;;;;;;;4.25;0.95;;;;;;;16.78;65.73;101491.84;5022381;28;20065;-76
2022/09/17 11:14:39;;;;;;;3.17;0.80;;;;;;;16.70;66.53;101489.03;5024065;28;20033;-76
2022/09/17 11:17:42;;;;;;;4.40;1.13;;;;;;;16.60;64.71;101485.50;5028438;28;20049;-76
2022/09/17 11:20:30;;;;;;;3.50;1.02;;;;;;;16.62;65.15;101488.91;5018533;28;20080;-77
2022/09/17 11:23:21;;;;;;;4.75;1.52;;;;;;;16.82;65.78;101479.03;5002731;28;20111;-77
2022/09/17 11:26:10;;;;;;;4.30;1.20;;;;;;;16.88;64.01;101483.84;5022912;28;20477;-78
2022/09/17 11:29:13;;;;;;;3.40;0.82;;;;;;;16.85;64.81;101481.44;5012789;28;20025;-77
2022/09/17 11:31:53;;;;;;;5.07;0.98;;;;;;;17.02;64.36;101474.50;5013256;28;20026;-76
2022/09/17 11:34:27;;;;;;;3.72;1.27;;;;;;;17.06;62.67;101477.75;5013892;28;20061;-77
2022/09/17 11:37:11;;;;;;;4.50;1.20;;;;;;;17.10;63.42;101474.63;5018855;28;20065;-78
2022/09/17 11:39:51;;;;;;;2.97;1.00;;;;;;;16.92;63.73;101479.91;5021266;28;20083;-77
2022/09/17 11:42:21;;;;;;;4.72;1.25;;;;;;;16.68;62.85;101468.72;5018730;28;20477;-76
2022/09/17 11:44:54;;;;;;;2.90;1.20;;;;;;;16.67;63.86;101483.13;5014073;28;20026;-77
2022/09/17 11:47:29;;;;;;;6.45;1.27;;;;;;;16.62;64.12;101478.16;5019620;28;20021;-76
2022/09/17 11:50:01;;;;;;;4.10;1.25;;;;;;;16.62;63.99;101483.53;5011913;28;20037;-76